createdAt,value
2018-11-12T00:00:17.528Z,50.93
2018-11-12T00:02:48.658Z,49.50
2018-11-12T00:05:18.063Z,49.23
2018-11-12T00:07:47.121Z,45.50
2018-11-12T00:10:16.431Z,49.30
2018-11-12T00:12:45.224Z,44.67
2018-11-12T00:15:14.322Z,48.97
2018-11-12T00:17:43.139Z,45.43
2018-11-12T00:20:13.485Z,45.23
2018-11-12T00:22:43.447Z,47.30
2018-11-12T00:25:12.236Z,43.97
2018-11-12T00:27:41.143Z,46.50
2018-11-12T00:30:18.774Z,48.67
2018-11-12T00:32:48.166Z,51.60
2018-11-12T00:35:17.453Z,50.67
2018-11-12T00:37:46.300Z,45.93
2018-11-12T00:40:16.408Z,58.50
2018-11-12T00:42:45.911Z,44.67
2018-11-12T00:45:15.049Z,58.90
2018-11-12T00:47:44.320Z,58.90
2018-11-12T00:50:14.416Z,52.93
2018-11-12T00:52:43.515Z,49.63
2018-11-12T00:55:13.882Z,49.27
2018-11-12T00:57:42.942Z,57.63
2018-11-12T01:00:20.371Z,53.07
2018-11-12T01:02:50.252Z,55.20
2018-11-12T01:05:19.680Z,46.23
2018-11-12T01:07:48.911Z,53.00
2018-11-12T01:10:18.861Z,49.67
2018-11-12T01:12:48.626Z,51.00
2018-11-12T01:15:18.815Z,46.03
2018-11-12T01:17:47.612Z,50.43
2018-11-12T01:20:17.076Z,80.47
2018-11-12T01:22:45.861Z,56.27
2018-11-12T01:25:15.456Z,52.27
2018-11-12T01:27:44.634Z,47.33
2018-11-12T01:30:14.522Z,61.87
2018-11-12T01:32:43.899Z,79.53
2018-11-12T01:35:13.607Z,65.03
2018-11-12T01:37:42.627Z,58.97
2018-11-12T01:40:12.262Z,372.60
2018-11-12T01:42:41.638Z,351.50
2018-11-12T01:45:12.627Z,415.27
2018-11-12T01:47:41.699Z,481.83
2018-11-12T01:50:11.883Z,486.40
2018-11-12T01:52:41.969Z,652.17
2018-11-12T01:55:11.905Z,627.57
2018-11-12T01:57:40.675Z,445.53
2018-11-12T02:00:13.574Z,513.03
2018-11-12T02:02:43.079Z,416.47
2018-11-12T02:05:11.892Z,351.27
2018-11-12T02:07:40.968Z,401.70
2018-11-12T02:10:11.991Z,391.17
2018-11-12T02:12:41.186Z,351.27
2018-11-12T02:15:12.403Z,356.47
2018-11-12T02:17:41.352Z,396.33
2018-11-12T02:20:11.719Z,271.83
2018-11-12T02:22:40.838Z,259.53
2018-11-12T02:25:10.572Z,203.83
2018-11-12T02:27:39.823Z,397.93
2018-11-12T02:30:12.518Z,194.13
2018-11-12T02:32:41.325Z,305.07
2018-11-12T02:35:10.700Z,233.67
2018-11-12T02:37:40.247Z,274.30
2018-11-12T02:40:10.600Z,295.53
2018-11-12T02:42:39.430Z,379.43
2018-11-12T02:45:11.425Z,345.80
2018-11-12T02:47:41.046Z,257.90
2018-11-12T02:50:12.081Z,382.63
2018-11-12T02:52:41.423Z,230.67
2018-11-12T02:55:12.807Z,184.37
2018-11-12T02:57:42.567Z,253.43
2018-11-12T03:00:15.600Z,243.40
2018-11-12T03:02:44.771Z,199.23
2018-11-12T03:05:14.319Z,123.70
2018-11-12T03:07:43.414Z,187.43
2018-11-12T03:10:14.789Z,142.23
2018-11-12T03:12:43.658Z,196.43
2018-11-12T03:15:13.237Z,188.90
2018-11-12T03:17:42.927Z,164.83
2018-11-12T03:20:14.292Z,190.47
2018-11-12T03:22:43.208Z,221.07
2018-11-12T03:25:14.401Z,292.27
2018-11-12T03:27:43.971Z,203.33
2018-11-12T03:30:14.362Z,281.03
2018-11-12T03:32:44.083Z,359.63
2018-11-12T03:35:13.543Z,423.80
2018-11-12T03:37:43.598Z,261.53
2018-11-12T03:40:14.556Z,270.93
2018-11-12T03:42:44.341Z,260.23
2018-11-12T03:45:16.566Z,329.33
2018-11-12T03:47:45.615Z,319.10
2018-11-12T03:50:16.516Z,421.70
2018-11-12T03:52:45.675Z,317.43
2018-11-12T03:55:17.082Z,262.67
2018-11-12T03:57:46.135Z,341.27
2018-11-12T04:00:17.466Z,330.03
2018-11-12T04:02:46.718Z,332.30
2018-11-12T04:05:15.727Z,376.17
2018-11-12T04:07:44.584Z,421.07
2018-11-12T04:10:17.509Z,250.60
2018-11-12T04:12:46.328Z,388.20
2018-11-12T04:15:19.663Z,169.87
2018-11-12T04:17:48.615Z,257.77
2018-11-12T04:20:18.681Z,168.93
2018-11-12T04:23:03.535Z,117.80
2018-11-12T04:25:34.012Z,243.20
2018-11-12T04:28:03.092Z,215.90
2018-11-12T04:30:31.921Z,194.33
2018-11-12T04:33:00.751Z,123.40
2018-11-12T04:35:29.879Z,102.10
2018-11-12T04:37:58.752Z,114.07
2018-11-12T04:40:27.904Z,169.57
2018-11-12T04:42:56.731Z,144.67
2018-11-12T04:45:25.976Z,208.40
2018-11-12T04:47:55.369Z,168.37
2018-11-12T04:50:25.724Z,118.13
2018-11-12T04:52:54.743Z,81.87
2018-11-12T04:55:24.395Z,109.80
2018-11-12T04:57:53.308Z,122.23
2018-11-12T05:00:23.483Z,107.63
2018-11-12T05:02:52.601Z,111.03
2018-11-12T05:05:22.833Z,71.27
2018-11-12T05:07:51.896Z,121.03
2018-11-12T05:10:22.138Z,73.40
2018-11-12T05:12:51.649Z,145.80
2018-11-12T05:15:21.636Z,111.90
2018-11-12T05:17:50.753Z,73.87
2018-11-12T05:20:21.733Z,83.63
2018-11-12T05:22:50.764Z,199.97
2018-11-12T05:25:19.747Z,137.63
2018-11-12T05:27:48.917Z,302.30
2018-11-12T05:30:22.673Z,319.33
2018-11-12T05:32:52.062Z,323.50
2018-11-12T05:35:22.179Z,283.03
2018-11-12T05:37:51.087Z,174.90
2018-11-12T05:40:21.183Z,91.50
2018-11-12T05:42:50.372Z,284.27
2018-11-12T05:45:20.282Z,94.47
2018-11-12T05:47:49.284Z,136.87
2018-11-12T05:50:19.286Z,200.77
2018-11-12T05:52:49.650Z,105.77
2018-11-12T05:55:20.019Z,159.93
2018-11-12T05:57:49.307Z,209.37
2018-11-12T06:00:23.687Z,136.17
2018-11-12T06:02:52.492Z,137.97
2018-11-12T06:05:21.399Z,152.13
2018-11-12T06:07:50.210Z,192.77
2018-11-12T06:10:21.090Z,184.37
2018-11-12T06:12:50.166Z,263.40
2018-11-12T06:15:19.032Z,230.70
2018-11-12T06:17:48.472Z,219.53
2018-11-12T06:20:21.338Z,309.80
2018-11-12T06:22:50.610Z,208.10
2018-11-12T06:25:21.210Z,430.17
2018-11-12T06:27:50.319Z,131.50
2018-11-12T06:30:20.502Z,53.93
2018-11-12T06:32:49.315Z,76.07
2018-11-12T06:35:19.145Z,99.00
2018-11-12T06:37:48.777Z,103.83
2018-11-12T06:40:18.946Z,89.37
2018-11-12T06:42:47.975Z,58.30
2018-11-12T06:45:19.067Z,116.43
2018-11-12T06:47:48.848Z,104.10
2018-11-12T06:50:19.349Z,52.17
2018-11-12T06:52:48.344Z,55.83
2018-11-12T06:55:17.851Z,139.63
2018-11-12T06:57:47.400Z,124.03
2018-11-12T07:00:19.305Z,108.20
2018-11-12T07:02:48.791Z,80.13
2018-11-12T07:05:18.138Z,115.37
2018-11-12T07:07:46.983Z,80.23
2018-11-12T07:10:17.105Z,63.03
2018-11-12T07:12:46.822Z,60.27
2018-11-12T07:15:17.179Z,101.43
2018-11-12T07:17:46.172Z,72.13
2018-11-12T07:20:16.323Z,105.27
2018-11-12T07:22:45.283Z,86.50
2018-11-12T07:25:15.089Z,48.13
2018-11-12T07:27:44.044Z,53.83
2018-11-12T07:30:16.052Z,48.93
2018-11-12T07:32:45.960Z,33.57
2018-11-12T07:35:15.516Z,60.13
2018-11-12T07:37:45.723Z,56.43
2018-11-12T07:40:15.329Z,165.77
2018-11-12T07:42:44.658Z,76.00
2018-11-12T07:45:23.751Z,31.13
2018-11-12T07:47:53.707Z,57.33
2018-11-12T07:50:23.866Z,19.27
2018-11-12T07:52:53.103Z,40.63
2018-11-12T07:55:23.074Z,34.30
2018-11-12T07:57:53.482Z,76.00
2018-11-12T08:00:25.166Z,81.43
2018-11-12T08:03:01.241Z,57.03
2018-11-12T08:05:30.172Z,32.53
2018-11-12T08:07:58.954Z,42.77
2018-11-12T08:10:27.864Z,33.40
2018-11-12T08:12:56.698Z,36.83
2018-11-12T08:15:25.544Z,76.53
2018-11-12T08:17:54.361Z,43.17
2018-11-12T08:20:24.432Z,32.27
2018-11-12T08:22:53.352Z,55.00
2018-11-12T08:25:22.502Z,43.33
2018-11-12T08:27:51.371Z,41.83
2018-11-12T08:30:22.799Z,49.53
2018-11-12T08:32:53.070Z,50.17
2018-11-12T08:35:22.368Z,30.67
2018-11-12T08:37:52.071Z,41.23
2018-11-12T08:40:22.228Z,45.13
2018-11-12T08:42:51.158Z,49.33
2018-11-12T08:45:20.423Z,37.03
2018-11-12T08:47:51.012Z,34.20
2018-11-12T08:50:22.503Z,41.03
2018-11-12T08:52:52.086Z,42.07
2018-11-12T08:55:22.658Z,46.83
2018-11-12T08:57:52.951Z,72.10
2018-11-12T09:00:22.724Z,55.33
2018-11-12T09:02:51.573Z,48.23
2018-11-12T09:05:22.120Z,49.63
2018-11-12T09:07:53.029Z,57.13
2018-11-12T09:10:23.767Z,42.43
2018-11-12T09:12:53.108Z,49.50
2018-11-12T09:15:22.108Z,47.20
2018-11-12T09:17:51.260Z,54.57
2018-11-12T09:20:25.213Z,48.20
2018-11-12T09:22:54.579Z,36.03
2018-11-12T09:25:25.848Z,36.50
2018-11-12T09:27:54.656Z,41.37
2018-11-12T09:30:25.053Z,40.13
2018-11-12T09:32:54.342Z,44.23
2018-11-12T09:35:32.119Z,38.93
2018-11-12T09:38:02.052Z,40.27
2018-11-12T09:40:35.447Z,45.03
2018-11-12T09:43:04.491Z,36.57
2018-11-12T09:45:33.688Z,34.57
2018-11-12T09:48:03.001Z,41.13
2018-11-12T09:50:32.003Z,33.47
2018-11-12T09:53:01.704Z,33.93
2018-11-12T09:55:31.739Z,35.07
2018-11-12T09:58:04.176Z,36.47
2018-11-12T10:00:33.149Z,34.70
2018-11-12T10:03:03.077Z,35.37
2018-11-12T10:05:33.151Z,36.83
2018-11-12T10:08:10.637Z,33.07
2018-11-12T10:10:44.936Z,34.60
2018-11-12T10:13:16.991Z,38.47
2018-11-12T10:15:47.072Z,36.47
2018-11-12T10:20:43.744Z,41.30
2018-11-12T10:23:12.491Z,36.43
2018-11-12T10:25:41.324Z,36.03
2018-11-12T10:28:10.471Z,31.67
2018-11-12T10:30:39.373Z,35.33
2018-11-12T10:33:08.540Z,31.43
2018-11-12T10:35:37.628Z,35.33
2018-11-12T10:38:07.479Z,34.03
2018-11-12T10:40:36.268Z,34.53
2018-11-12T10:43:05.188Z,29.63
2018-11-12T10:45:34.201Z,31.50
2018-11-12T10:48:03.098Z,28.90
2018-11-12T10:50:32.123Z,29.27
2018-11-12T10:53:00.926Z,28.30
2018-11-12T10:55:30.099Z,28.30
2018-11-12T10:57:59.063Z,29.30
2018-11-12T11:00:38.019Z,31.77
2018-11-12T11:03:20.138Z,36.10
2018-11-12T11:05:50.761Z,39.40
2018-11-12T11:08:19.694Z,40.97
2018-11-12T11:10:48.728Z,44.87
2018-11-12T11:13:17.756Z,37.10
2018-11-12T11:15:46.579Z,48.40
2018-11-12T11:18:15.459Z,39.77
2018-11-12T11:20:44.239Z,39.30
2018-11-12T11:23:13.060Z,43.03
2018-11-12T11:25:41.867Z,45.87
2018-11-12T11:28:10.795Z,41.20
2018-11-12T11:30:39.576Z,42.20
2018-11-12T11:33:11.234Z,38.90
2018-11-12T11:35:40.041Z,37.23
2018-11-12T11:38:08.831Z,34.93
2018-11-12T11:40:37.654Z,35.37
2018-11-12T11:43:06.574Z,30.57
2018-11-12T11:45:35.355Z,30.93
2018-11-12T11:48:04.367Z,30.33
2018-11-12T11:50:33.354Z,31.23
2018-11-12T11:53:02.644Z,28.60
2018-11-12T11:55:31.623Z,31.40
2018-11-12T11:58:00.588Z,30.80
2018-11-12T12:00:30.143Z,35.20
2018-11-12T12:02:59.641Z,33.10
2018-11-12T12:05:28.984Z,30.50
2018-11-12T12:07:58.447Z,29.30
2018-11-12T12:10:27.430Z,28.50
2018-11-12T12:12:56.396Z,30.33
2018-11-12T12:15:25.274Z,26.80
2018-11-12T12:17:54.087Z,24.30
2018-11-12T12:20:24.294Z,23.50
2018-11-12T12:22:53.641Z,26.17
2018-11-12T12:25:22.463Z,27.60
2018-11-12T12:27:51.510Z,25.27
2018-11-12T12:30:22.843Z,24.63
2018-11-12T12:32:52.718Z,24.93
2018-11-12T12:35:21.711Z,23.70
2018-11-12T12:37:50.783Z,24.73
2018-11-12T12:40:20.704Z,24.67
2018-11-12T12:42:49.821Z,24.43
2018-11-12T12:45:19.886Z,24.50
2018-11-12T12:47:49.203Z,21.93
2018-11-12T12:50:18.828Z,21.60
2018-11-12T12:52:47.615Z,23.33
2018-11-12T12:55:17.150Z,23.43
2018-11-12T12:57:46.420Z,23.67
2018-11-12T13:00:20.580Z,22.80
2018-11-12T13:02:49.535Z,21.17
2018-11-12T13:05:18.895Z,28.13
2018-11-12T13:07:47.708Z,21.57
2018-11-12T13:10:18.187Z,20.00
2018-11-12T13:12:47.323Z,20.33
2018-11-12T13:15:17.361Z,21.93
2018-11-12T13:17:46.896Z,19.03
2018-11-12T13:20:17.055Z,19.50
2018-11-12T13:22:46.562Z,20.77
2018-11-12T13:25:15.727Z,19.23
2018-11-12T13:27:45.332Z,18.80
2018-11-12T13:30:15.848Z,18.37
2018-11-12T13:32:45.243Z,22.83
2018-11-12T13:35:15.231Z,18.70
2018-11-12T13:37:44.053Z,17.57
2018-11-12T13:40:15.440Z,17.67
2018-11-12T13:42:45.981Z,18.33
2018-11-12T13:45:14.967Z,20.73
2018-11-12T13:47:43.906Z,15.97
2018-11-12T13:50:14.195Z,16.00
2018-11-12T13:52:43.667Z,16.00
2018-11-12T13:55:13.512Z,16.57
2018-11-12T13:57:42.328Z,16.73
2018-11-12T14:00:13.591Z,16.80
2018-11-12T14:02:43.420Z,18.63
2018-11-12T14:05:13.939Z,17.07
2018-11-12T14:07:43.288Z,16.97
2018-11-12T14:10:13.441Z,18.33
2018-11-12T14:12:42.671Z,19.20
2018-11-12T14:15:14.045Z,18.83
2018-11-12T14:17:44.245Z,20.50
2018-11-12T14:20:13.937Z,19.10
2018-11-12T14:22:43.143Z,21.13
2018-11-12T14:25:13.370Z,18.57
2018-11-12T14:27:42.500Z,19.83
2018-11-12T14:30:13.709Z,17.37
2018-11-12T14:32:42.724Z,17.17
2018-11-12T14:35:12.652Z,17.27
2018-11-12T14:37:42.413Z,17.73
2018-11-12T14:40:12.125Z,20.80
2018-11-12T14:42:41.372Z,18.93
2018-11-12T14:45:12.397Z,17.33
2018-11-12T14:47:41.937Z,23.03
2018-11-12T14:50:10.781Z,18.23
2018-11-12T14:52:39.754Z,19.13
2018-11-12T14:55:09.681Z,16.57
2018-11-12T14:57:38.583Z,18.10
2018-11-12T15:00:17.843Z,22.80
2018-11-12T15:02:47.233Z,20.33
2018-11-12T15:05:17.093Z,20.73
2018-11-12T15:07:45.901Z,20.60
2018-11-12T15:10:15.143Z,20.50
2018-11-12T15:12:44.528Z,22.07
2018-11-12T15:15:13.939Z,23.80
2018-11-12T15:17:45.965Z,23.67
2018-11-12T15:20:16.191Z,23.70
2018-11-12T15:22:45.209Z,22.93
2018-11-12T15:25:18.657Z,26.70
2018-11-12T15:27:47.444Z,26.20
2018-11-12T15:30:17.843Z,28.50
2018-11-12T15:32:47.534Z,28.03
2018-11-12T15:35:16.519Z,27.73
2018-11-12T15:37:46.130Z,27.10
2018-11-12T15:40:15.402Z,28.83
2018-11-12T15:42:44.181Z,29.67
2018-11-12T15:45:15.723Z,30.07
2018-11-12T15:47:45.423Z,31.03
2018-11-12T15:50:16.835Z,33.93
2018-11-12T15:52:45.794Z,32.70
2018-11-12T15:55:15.829Z,34.43
2018-11-12T15:57:43.925Z,36.57
2018-11-12T16:00:17.032Z,34.90
2018-11-12T16:02:46.020Z,34.17
2018-11-12T16:05:15.096Z,37.37
2018-11-12T16:07:44.105Z,32.17
2018-11-12T16:10:15.368Z,36.17
2018-11-12T16:12:44.172Z,36.43
2018-11-12T16:15:14.009Z,37.57
2018-11-12T16:17:43.331Z,34.60
2018-11-12T16:20:22.783Z,39.93
2018-11-12T16:22:52.143Z,39.37
2018-11-12T16:25:21.246Z,36.73
2018-11-12T16:27:50.063Z,49.97
2018-11-12T16:30:18.931Z,45.90
2018-11-12T16:32:48.092Z,40.67
2018-11-12T16:35:18.923Z,59.03
2018-11-12T16:37:48.578Z,56.97
2018-11-12T16:40:17.983Z,42.50
2018-11-12T16:42:47.727Z,58.43
2018-11-12T16:45:17.043Z,40.47
2018-11-12T16:47:47.237Z,42.37
2018-11-12T16:50:16.508Z,51.53
2018-11-12T16:52:45.300Z,40.23
2018-11-12T16:55:17.151Z,43.27
2018-11-12T16:57:46.245Z,43.87
2018-11-12T17:00:16.432Z,43.70
2018-11-12T17:02:45.479Z,41.33
2018-11-12T17:05:16.647Z,50.73
2018-11-12T17:07:45.471Z,62.97
2018-11-12T17:10:15.693Z,53.47
2018-11-12T17:12:45.648Z,56.20
2018-11-12T17:15:15.012Z,73.57
2018-11-12T17:17:44.358Z,60.40
2018-11-12T17:20:14.715Z,68.57
2018-11-12T17:22:43.523Z,57.00
2018-11-12T17:25:13.467Z,69.53
2018-11-12T17:27:42.913Z,61.00
2018-11-12T17:30:13.485Z,68.93
2018-11-12T17:32:42.969Z,47.07
2018-11-12T17:35:13.474Z,78.23
2018-11-12T17:37:42.779Z,68.53
2018-11-12T17:40:16.448Z,64.07
2018-11-12T17:42:46.125Z,78.70
2018-11-12T17:45:16.348Z,70.90
2018-11-12T17:47:46.262Z,67.00
2018-11-12T17:50:15.474Z,59.33
2018-11-12T17:52:44.298Z,64.40
2018-11-12T17:55:13.791Z,94.07
2018-11-12T17:57:42.744Z,86.27
2018-11-12T18:00:14.705Z,72.67
2018-11-12T18:02:43.492Z,123.37
2018-11-12T18:05:12.504Z,76.30
2018-11-12T18:07:42.063Z,124.97
2018-11-12T18:10:12.205Z,106.37
2018-11-12T18:12:41.021Z,102.27
2018-11-12T18:15:12.531Z,81.80
2018-11-12T18:17:41.675Z,91.27
2018-11-12T18:20:14.399Z,138.53
2018-11-12T18:22:43.523Z,98.00
2018-11-12T18:25:12.667Z,97.97
2018-11-12T18:27:41.986Z,85.33
2018-11-12T18:30:13.349Z,137.47
2018-11-12T18:32:42.297Z,118.53
2018-11-12T18:35:11.603Z,111.20
2018-11-12T18:37:40.448Z,121.03
2018-11-12T18:40:11.296Z,113.63
2018-11-12T18:42:40.715Z,133.03
2018-11-12T18:45:12.390Z,178.33
2018-11-12T18:47:41.905Z,160.43
2018-11-12T18:50:15.873Z,182.13
2018-11-12T18:52:45.272Z,173.10
2018-11-12T18:55:17.547Z,145.17
2018-11-12T18:57:47.072Z,126.07
2018-11-12T19:00:17.192Z,125.23
2018-11-12T19:02:46.455Z,87.77
2018-11-12T19:05:19.850Z,214.00
2018-11-12T19:07:50.278Z,187.20
2018-11-12T19:10:22.862Z,196.37
2018-11-12T19:12:52.139Z,150.63
2018-11-12T19:15:22.548Z,285.50
2018-11-12T19:17:55.088Z,135.83
2018-11-12T19:20:24.191Z,239.27
2018-11-12T19:22:53.555Z,215.40
2018-11-12T19:25:22.386Z,420.07
2018-11-12T19:27:51.204Z,402.57
2018-11-12T19:30:21.400Z,290.40
2018-11-12T19:32:50.977Z,350.63
2018-11-12T19:35:21.143Z,231.27
2018-11-12T19:37:50.130Z,348.93
2018-11-12T19:40:22.086Z,299.30
2018-11-12T19:42:52.432Z,237.23
2018-11-12T19:45:21.436Z,457.67
2018-11-12T19:47:51.311Z,364.67
2018-11-12T19:50:21.681Z,167.97
2018-11-12T19:52:52.048Z,270.63
2018-11-12T19:55:21.117Z,236.17
2018-11-12T19:57:50.302Z,268.07
2018-11-12T20:00:20.857Z,168.80
2018-11-12T20:02:51.375Z,297.23
2018-11-12T20:05:20.414Z,191.60
2018-11-12T20:07:49.460Z,211.20
2018-11-12T20:10:20.384Z,338.03
2018-11-12T20:12:49.508Z,308.97
2018-11-12T20:15:19.666Z,201.67
2018-11-12T20:17:49.210Z,189.93
2018-11-12T20:20:19.328Z,379.83
2018-11-12T20:22:49.013Z,274.60
2018-11-12T20:25:18.822Z,309.00
2018-11-12T20:27:48.392Z,333.17
2018-11-12T20:30:21.176Z,297.73
2018-11-12T20:32:50.225Z,276.67
2018-11-12T20:35:19.020Z,257.67
2018-11-12T20:37:48.155Z,206.70
2018-11-12T20:40:17.823Z,231.30
2018-11-12T20:42:47.894Z,342.93
2018-11-12T20:45:17.724Z,329.43
2018-11-12T20:47:47.880Z,469.07
2018-11-12T20:50:17.741Z,406.70
2018-11-12T20:52:46.631Z,265.20
2018-11-12T20:55:16.501Z,141.20
2018-11-12T20:57:46.055Z,342.43
2018-11-12T21:00:18.903Z,413.50
2018-11-12T21:02:49.222Z,363.07
2018-11-12T21:05:18.618Z,399.30
2018-11-12T21:07:47.408Z,434.83
2018-11-12T21:10:17.407Z,422.80
2018-11-12T21:12:46.991Z,390.60
2018-11-12T21:15:17.235Z,419.97
2018-11-12T21:17:46.236Z,302.20
2018-11-12T21:20:24.003Z,494.30
2018-11-12T21:22:53.693Z,391.03
2018-11-12T21:25:23.735Z,350.67
2018-11-12T21:27:52.668Z,296.10
2018-11-12T21:30:22.717Z,371.43
2018-11-12T21:32:52.069Z,409.80
2018-11-12T21:35:21.129Z,414.27
2018-11-12T21:37:51.490Z,333.33
2018-11-12T21:40:21.847Z,220.40
2018-11-12T21:42:51.005Z,303.50
2018-11-12T21:45:22.669Z,323.53
2018-11-12T21:47:51.717Z,418.40
2018-11-12T21:50:21.468Z,324.77
2018-11-12T21:52:50.626Z,255.60
2018-11-12T21:55:19.794Z,234.47
2018-11-12T21:57:48.944Z,149.13
2018-11-12T22:00:23.131Z,233.63
2018-11-12T22:02:54.197Z,332.70
2018-11-12T22:05:23.119Z,245.50
2018-11-12T22:07:51.899Z,333.07
2018-11-12T22:10:20.693Z,258.03
2018-11-12T22:12:50.620Z,285.47
2018-11-12T22:15:19.664Z,369.43
2018-11-12T22:17:48.468Z,343.37
2018-11-12T22:20:19.114Z,175.03
2018-11-12T22:22:47.906Z,497.67
2018-11-12T22:25:18.330Z,347.67
2018-11-12T22:27:49.617Z,248.57
2018-11-12T22:30:20.008Z,189.43
2018-11-12T22:32:50.103Z,362.97
2018-11-12T22:35:18.963Z,260.67
2018-11-12T22:37:48.195Z,244.17
2018-11-12T22:40:17.559Z,164.60
2018-11-12T22:42:48.051Z,143.40
2018-11-12T22:45:19.187Z,379.37
2018-11-12T22:47:48.656Z,319.47
2018-11-12T22:50:17.655Z,162.07
2018-11-12T22:52:46.704Z,197.20
2018-11-12T22:55:16.697Z,176.33
2018-11-12T22:57:45.738Z,143.80
2018-11-12T23:00:20.719Z,203.87
2018-11-12T23:02:50.152Z,167.60
2018-11-12T23:05:19.602Z,166.27
2018-11-12T23:07:49.265Z,205.07
2018-11-12T23:10:18.981Z,236.90
2018-11-12T23:12:47.858Z,354.87
2018-11-12T23:15:17.472Z,237.20
2018-11-12T23:17:46.668Z,173.50
2018-11-12T23:20:19.379Z,190.87
2018-11-12T23:22:48.960Z,147.90
2018-11-12T23:25:18.043Z,188.83
2018-11-12T23:27:47.765Z,246.30
2018-11-12T23:30:17.711Z,137.83
2018-11-12T23:32:46.895Z,347.10
2018-11-12T23:35:16.971Z,211.77
2018-11-12T23:37:46.374Z,185.73
2018-11-12T23:40:15.597Z,246.37
2018-11-12T23:42:45.320Z,162.77
2018-11-12T23:45:14.587Z,324.67
2018-11-12T23:47:43.395Z,131.53
2018-11-12T23:50:15.026Z,141.63
2018-11-12T23:52:44.730Z,194.90
2018-11-12T23:55:14.086Z,186.90
2018-11-12T23:57:43.262Z,159.33
